Terminal Aerodrome Forecast
Issued by NWS Twin Cities, MN

Home | Current Version | Previous Version | Graphics & Text | Print | Product List | Glossary On
Versions: 1 2 3 4 5 6 7 8 9 10 11 12 13 14 15 16 17 18
291
FTUS43 KMPX 231735
TAFEAU
TAF
KEAU 231735Z 2318/2418 14010KT 6SM -TSRA BR SCT030 BKN050CB
     FM232200 15012KT P6SM SCT050 BKN100
     FM240330 17011KT P6SM VCSH SCT030 BKN050 PROB30 2404/2406 2SM
      TSRA BKN020CB
     FM240630 19010KT P6SM SCT020 BKN080
     FM240900 23005KT P6SM SCT250=

USA.gov is the U.S. government's official web portal to all federal, state and local government web resources and services.